Time;durP1;ratioP1;P1;durP2;ratioP2;P2;SDS_P1;SDS_P2;PMS_P1;PMS_P2;Temp;Humidity;BMP_temperature;BMP_pressure;BME280_temperature;BME280_humidity;BME280_pressure;Samples;Min_cycle;Max_cycle;Signal;HPM_P1;HPM_P2
2022/06/25 00:01:10;;;;;;;3.00;2.67;;;18.10;99.90;;;;;;5075058;28;20024;-55
2022/06/25 00:03:36;;;;;;;4.03;2.50;;;18.10;99.90;;;;;;5074905;28;20099;-54
2022/06/25 00:06:03;;;;;;;10.57;3.25;;;18.10;99.90;;;;;;5074884;28;20025;-54
2022/06/25 00:08:29;;;;;;;3.05;2.70;;;18.10;99.90;;;;;;5074636;28;20097;-56
2022/06/25 00:10:55;;;;;;;4.68;2.50;;;18.00;99.90;;;;;;5074644;28;20039;-55
2022/06/25 00:13:22;;;;;;;3.55;2.55;;;18.00;99.90;;;;;;5075078;28;20523;-55
2022/06/25 00:15:48;;;;;;;5.85;2.90;;;17.90;99.90;;;;;;5074709;28;20124;-55
2022/06/25 00:18:15;;;;;;;4.13;2.33;;;17.90;99.90;;;;;;5074669;28;20560;-55
2022/06/25 00:20:41;;;;;;;4.20;2.72;;;17.90;99.90;;;;;;5074695;28;20017;-55
2022/06/25 00:23:07;;;;;;;5.35;2.72;;;17.90;99.90;;;;;;5074517;28;20029;-55
2022/06/25 00:25:33;;;;;;;3.63;2.20;;;17.80;99.90;;;;;;5075117;28;20025;-55
2022/06/25 00:27:58;;;;;;;5.32;2.70;;;17.80;99.90;;;;;;5074380;28;20028;-55
2022/06/25 00:30:24;;;;;;;5.00;2.70;;;17.80;99.90;;;;;;5074479;28;20032;-55
2022/06/25 00:32:50;;;;;;;7.55;2.80;;;17.80;99.90;;;;;;5074617;28;20028;-55
2022/06/25 00:35:16;;;;;;;5.03;3.08;;;17.80;99.90;;;;;;5074613;28;20033;-55
2022/06/25 00:37:41;;;;;;;6.03;2.75;;;17.80;99.90;;;;;;5074438;28;20028;-55
2022/06/25 00:40:09;;;;;;;4.78;2.90;;;17.70;99.90;;;;;;5074347;28;20028;-55
2022/06/25 00:42:35;;;;;;;6.47;3.00;;;17.70;99.90;;;;;;5074330;28;20104;-55
2022/06/25 00:45:01;;;;;;;4.85;2.50;;;17.70;99.90;;;;;;5074416;28;20099;-55
2022/06/25 00:47:26;;;;;;;4.95;2.80;;;17.70;99.90;;;;;;5074480;28;20025;-55
2022/06/25 00:49:52;;;;;;;3.47;2.85;;;17.60;99.90;;;;;;5074111;28;20125;-57
2022/06/25 00:52:21;;;;;;;4.13;3.20;;;17.60;99.90;;;;;;5074054;28;20085;-54
2022/06/25 00:54:54;;;;;;;5.32;2.88;;;17.60;99.90;;;;;;5074301;28;20489;-55
2022/06/25 00:57:26;;;;;;;5.05;2.67;;;17.60;99.90;;;;;;5074256;28;20029;-55
2022/06/25 00:59:55;;;;;;;6.60;3.30;;;17.50;99.90;;;;;;5074108;28;20021;-54
2022/06/25 01:02:21;;;;;;;4.68;3.55;;;17.50;99.90;;;;;;5073883;28;20255;-54
2022/06/25 01:04:48;;;;;;;5.65;3.58;;;17.50;99.90;;;;;;5074123;28;20029;-54
2022/06/25 01:07:13;;;;;;;5.70;3.17;;;17.50;99.90;;;;;;5073999;28;20028;-55
2022/06/25 01:09:40;;;;;;;4.72;3.10;;;17.50;99.90;;;;;;5073655;28;20024;-54
2022/06/25 01:12:06;;;;;;;5.38;3.00;;;17.50;99.90;;;;;;5073491;28;20066;-55
2022/06/25 01:14:32;;;;;;;5.70;3.45;;;17.40;99.90;;;;;;5073492;28;20028;-54
2022/06/25 01:16:58;;;;;;;7.07;3.35;;;17.40;99.90;;;;;;5073712;28;20063;-55
2022/06/25 01:19:24;;;;;;;6.28;3.33;;;17.40;99.90;;;;;;5073657;28;20064;-56
2022/06/25 01:21:50;;;;;;;6.47;3.15;;;17.30;99.90;;;;;;5073627;28;20497;-54
2022/06/25 01:24:15;;;;;;;4.30;3.10;;;17.30;99.90;;;;;;5073520;28;20035;-55
2022/06/25 01:26:41;;;;;;;5.22;3.00;;;17.30;99.90;;;;;;5073715;28;20016;-55
2022/06/25 01:29:09;;;;;;;5.05;3.17;;;17.30;99.90;;;;;;5073449;28;20036;-55
2022/06/25 01:31:36;;;;;;;7.78;2.90;;;17.20;99.90;;;;;;5073352;28;20025;-55
2022/06/25 01:34:03;;;;;;;6.75;3.13;;;17.20;99.90;;;;;;5073282;28;20040;-55
2022/06/25 01:36:28;;;;;;;8.23;2.85;;;17.20;99.90;;;;;;5073674;28;20060;-55
2022/06/25 01:38:54;;;;;;;4.28;3.03;;;17.20;99.90;;;;;;5073365;28;20085;-54
2022/06/25 01:41:20;;;;;;;7.60;3.10;;;17.20;99.90;;;;;;5073055;28;20031;-54
2022/06/25 01:43:46;;;;;;;5.38;3.50;;;17.20;99.90;;;;;;5073014;28;20035;-54
2022/06/25 01:46:13;;;;;;;4.03;2.42;;;17.20;99.90;;;;;;5073186;28;20025;-55
2022/06/25 01:48:39;;;;;;;4.15;3.03;;;17.20;99.90;;;;;;5072976;28;20017;-54
2022/06/25 01:51:04;;;;;;;3.85;3.08;;;17.20;99.90;;;;;;5072623;28;20036;-54
2022/06/25 01:53:30;;;;;;;5.78;2.92;;;17.30;99.90;;;;;;5073020;28;20090;-54
2022/06/25 01:55:56;;;;;;;7.07;2.85;;;17.20;99.90;;;;;;5072797;28;20044;-54
2022/06/25 01:58:22;;;;;;;4.13;2.58;;;17.30;99.90;;;;;;5072629;28;20048;-54
2022/06/25 02:00:48;;;;;;;5.30;2.90;;;17.30;99.90;;;;;;5071129;28;20385;-54
2022/06/25 02:03:14;;;;;;;5.05;2.85;;;17.30;99.90;;;;;;5072649;28;20532;-54
2022/06/25 02:05:56;;;;;;;7.28;3.03;;;17.30;99.90;;;;;;5073247;28;20100;-54
2022/06/25 02:08:24;;;;;;;5.38;2.90;;;17.30;99.90;;;;;;5072582;28;20029;-54
2022/06/25 02:10:50;;;;;;;4.75;2.88;;;17.30;99.90;;;;;;5072653;28;20050;-54
2022/06/25 02:13:16;;;;;;;5.15;2.70;;;17.30;99.90;;;;;;5072288;28;20032;-54
2022/06/25 02:15:42;;;;;;;5.30;2.70;;;17.30;99.90;;;;;;5072765;28;20032;-54
2022/06/25 02:18:08;;;;;;;5.15;2.80;;;17.30;99.90;;;;;;5072540;28;20469;-54
2022/06/25 02:20:34;;;;;;;3.63;2.80;;;17.20;99.90;;;;;;5072727;28;20032;-54
2022/06/25 02:23:00;;;;;;;5.88;3.20;;;17.20;99.90;;;;;;5072387;28;20468;-54
2022/06/25 02:25:26;;;;;;;9.75;3.22;;;17.20;99.90;;;;;;5072544;28;20465;-53
2022/06/25 02:27:52;;;;;;;5.35;2.90;;;17.30;99.90;;;;;;5072223;28;20039;-54
2022/06/25 02:30:17;;;;;;;6.40;3.35;;;17.20;99.90;;;;;;5072291;28;20099;-54
2022/06/25 02:32:43;;;;;;;5.30;3.15;;;17.30;99.90;;;;;;5070829;28;20024;-54
2022/06/25 02:35:09;;;;;;;8.05;3.15;;;17.30;99.90;;;;;;5072330;28;20040;-55
2022/06/25 02:37:34;;;;;;;5.78;2.75;;;17.30;99.90;;;;;;5072144;28;20025;-55
2022/06/25 02:40:00;;;;;;;4.45;2.92;;;17.40;99.90;;;;;;5071844;28;20031;-55
2022/06/25 02:42:33;;;;;;;6.97;2.90;;;17.40;99.90;;;;;;5071765;28;20025;-55
2022/06/25 02:45:01;;;;;;;3.92;2.80;;;17.50;99.90;;;;;;5072153;28;20021;-55
2022/06/25 02:47:27;;;;;;;6.63;2.53;;;17.50;99.90;;;;;;5071707;28;20044;-55
2022/06/25 02:49:56;;;;;;;3.83;2.70;;;17.50;99.90;;;;;;5071776;28;20059;-53
2022/06/25 02:52:22;;;;;;;5.32;3.15;;;17.30;99.90;;;;;;5072194;28;20016;-52
2022/06/25 02:54:48;;;;;;;7.95;2.97;;;17.00;99.90;;;;;;5071738;28;20048;-52
2022/06/25 02:59:57;;;;;;;6.47;2.70;;;16.70;99.90;;;;;;5071708;28;20039;-54
2022/06/25 03:02:23;;;;;;;9.45;3.05;;;16.60;99.90;;;;;;5072045;28;20396;-53
2022/06/25 03:04:49;;;;;;;4.90;3.03;;;16.70;99.90;;;;;;5072165;28;20028;-53
2022/06/25 03:07:14;;;;;;;5.00;2.15;;;16.80;99.90;;;;;;5071542;28;20446;-53
2022/06/25 03:09:40;;;;;;;5.00;2.58;;;16.90;99.90;;;;;;5072049;28;20023;-55
2022/06/25 03:12:07;;;;;;;6.10;2.80;;;16.80;99.90;;;;;;5070747;28;20477;-54
2022/06/25 03:14:33;;;;;;;6.40;2.38;;;16.80;99.90;;;;;;5070426;28;20025;-53
2022/06/25 03:16:58;;;;;;;4.72;2.28;;;16.90;99.90;;;;;;5071785;28;20032;-55
2022/06/25 03:19:24;;;;;;;3.22;2.22;;;16.90;99.90;;;;;;5070911;28;20024;-55
2022/06/25 03:21:50;;;;;;;6.40;2.20;;;16.90;99.90;;;;;;5071241;28;20024;-54
2022/06/25 03:24:15;;;;;;;4.53;2.30;;;16.90;99.90;;;;;;5071091;28;20032;-55
2022/06/25 03:26:41;;;;;;;4.47;2.25;;;17.00;99.90;;;;;;5071266;28;20028;-55
2022/06/25 03:29:07;;;;;;;3.78;2.10;;;17.00;99.90;;;;;;5071296;28;20036;-55
2022/06/25 03:31:33;;;;;;;2.78;1.95;;;17.00;99.90;;;;;;5071202;28;20085;-54
2022/06/25 03:33:58;;;;;;;4.13;2.05;;;16.90;99.90;;;;;;5070961;28;20056;-54
2022/06/25 03:36:24;;;;;;;7.72;2.45;;;16.80;99.90;;;;;;5071222;28;20166;-55
2022/06/25 03:38:49;;;;;;;4.82;2.10;;;16.70;99.90;;;;;;5071706;28;20105;-54
2022/06/25 03:41:35;;;;;;;4.78;1.80;;;16.70;99.90;;;;;;5070198;28;20052;-55
2022/06/25 03:44:10;;;;;;;2.65;1.60;;;16.80;99.90;;;;;;5071406;28;20125;-54
2022/06/25 03:46:38;;;;;;;5.15;1.67;;;16.80;99.90;;;;;;5071963;28;20264;-55
2022/06/25 03:49:06;;;;;;;4.32;1.70;;;16.90;99.90;;;;;;5071092;28;20017;-55
2022/06/25 03:51:32;;;;;;;4.25;1.83;;;17.00;99.90;;;;;;5071103;28;20036;-54
2022/06/25 03:53:58;;;;;;;2.85;1.73;;;17.10;99.90;;;;;;5071057;28;20111;-55
2022/06/25 03:56:24;;;;;;;5.15;1.70;;;17.10;99.90;;;;;;5071765;28;20044;-56
2022/06/25 03:58:51;;;;;;;4.00;2.08;;;17.20;99.90;;;;;;5070944;28;20033;-56
2022/06/25 04:01:17;;;;;;;3.97;2.00;;;17.30;99.90;;;;;;5070990;28;20438;-56
2022/06/25 04:03:43;;;;;;;5.20;1.63;;;17.30;99.90;;;;;;5070792;28;20099;-55
2022/06/25 04:06:09;;;;;;;3.00;1.80;;;17.40;99.90;;;;;;5071320;28;20020;-56
2022/06/25 04:08:35;;;;;;;5.72;2.47;;;17.40;99.90;;;;;;5070912;28;20024;-55
2022/06/25 04:11:02;;;;;;;5.78;2.10;;;17.50;99.90;;;;;;5071154;28;20044;-55
2022/06/25 04:13:27;;;;;;;4.28;2.13;;;17.60;99.90;;;;;;5070976;28;20082;-55
2022/06/25 04:15:53;;;;;;;3.55;1.83;;;17.60;99.90;;;;;;5070940;28;20032;-55
2022/06/25 04:18:19;;;;;;;5.72;1.83;;;17.60;99.90;;;;;;5070912;28;20021;-55
2022/06/25 04:20:45;;;;;;;6.50;1.60;;;17.60;99.90;;;;;;5070880;28;20027;-56
2022/06/25 04:23:11;;;;;;;3.65;2.05;;;17.70;99.90;;;;;;5071379;28;20013;-55
2022/06/25 04:25:37;;;;;;;4.07;2.10;;;17.70;99.90;;;;;;5074851;28;20024;-55
2022/06/25 04:30:47;;;;;;;6.35;2.20;;;17.70;99.90;;;;;;5074745;28;20388;-55
2022/06/25 04:33:13;;;;;;;3.72;2.03;;;17.80;99.90;;;;;;5074415;28;20028;-56
2022/06/25 04:35:39;;;;;;;5.63;1.90;;;17.80;99.90;;;;;;5075327;28;20024;-56
2022/06/25 04:38:04;;;;;;;4.93;1.90;;;17.80;99.90;;;;;;5074268;28;20134;-56
2022/06/25 04:40:30;;;;;;;3.38;1.70;;;17.90;99.90;;;;;;5074687;28;20052;-54
2022/06/25 04:42:56;;;;;;;4.95;1.80;;;17.80;99.90;;;;;;5074279;28;20028;-55
2022/06/25 04:45:22;;;;;;;3.58;1.90;;;17.90;99.90;;;;;;5074615;28;20507;-55
2022/06/25 04:47:47;;;;;;;2.33;1.80;;;17.80;99.90;;;;;;5074328;28;20029;-55
2022/06/25 04:50:13;;;;;;;4.38;2.13;;;17.80;99.90;;;;;;5074186;28;20059;-56
2022/06/25 04:52:39;;;;;;;2.78;2.17;;;17.90;99.90;;;;;;5074056;28;20027;-55
2022/06/25 04:55:05;;;;;;;6.60;2.30;;;17.90;99.90;;;;;;5074400;28;20044;-55
2022/06/25 04:57:31;;;;;;;4.30;2.13;;;17.80;99.90;;;;;;5073856;28;20032;-55
2022/06/25 04:59:56;;;;;;;3.55;1.95;;;17.90;99.90;;;;;;5073721;28;20029;-55
2022/06/25 05:02:22;;;;;;;3.15;1.58;;;17.90;99.90;;;;;;5073815;28;20040;-54
2022/06/25 05:04:48;;;;;;;2.80;1.90;;;18.00;99.90;;;;;;5073968;28;20396;-55
2022/06/25 05:07:14;;;;;;;7.65;1.90;;;18.00;99.90;;;;;;5074062;28;20299;-55
2022/06/25 05:09:40;;;;;;;7.13;2.00;;;18.00;99.90;;;;;;5073789;28;20127;-55
2022/06/25 05:12:06;;;;;;;3.35;1.88;;;18.00;99.90;;;;;;5072439;28;20537;-55
2022/06/25 05:14:32;;;;;;;2.20;1.40;;;18.00;99.90;;;;;;5073734;28;20158;-55
2022/06/25 05:16:57;;;;;;;5.68;2.20;;;18.00;99.90;;;;;;5073484;28;20031;-55
2022/06/25 05:19:23;;;;;;;5.68;2.13;;;17.90;99.90;;;;;;5073247;28;20469;-54
2022/06/25 05:21:49;;;;;;;5.25;1.80;;;18.00;99.90;;;;;;5073493;28;20100;-56
2022/06/25 05:24:14;;;;;;;6.25;1.98;;;18.00;99.90;;;;;;5073213;28;20416;-56
2022/06/25 05:26:40;;;;;;;4.85;1.75;;;18.10;99.90;;;;;;5073642;28;20419;-56
2022/06/25 05:29:05;;;;;;;3.88;1.70;;;18.10;99.90;;;;;;5073092;28;20025;-54
2022/06/25 05:31:31;;;;;;;4.18;1.45;;;18.10;99.90;;;;;;5073421;28;20083;-55
2022/06/25 05:33:57;;;;;;;4.68;1.70;;;18.10;99.90;;;;;;5073125;28;20028;-55
2022/06/25 05:36:22;;;;;;;4.47;1.63;;;18.10;99.90;;;;;;5072409;28;20473;-55
2022/06/25 05:38:48;;;;;;;2.28;1.50;;;18.10;99.90;;;;;;5073019;28;20031;-55
2022/06/25 05:41:14;;;;;;;4.13;1.50;;;18.00;99.90;;;;;;5073160;28;20070;-55
2022/06/25 05:43:40;;;;;;;4.28;1.70;;;18.00;99.90;;;;;;5072886;28;20397;-54
2022/06/25 05:46:07;;;;;;;3.13;1.60;;;18.00;99.90;;;;;;5073453;28;20424;-56
2022/06/25 05:48:33;;;;;;;5.13;1.45;;;18.00;99.90;;;;;;5072839;28;20225;-55
2022/06/25 05:50:59;;;;;;;5.18;1.60;;;17.90;99.90;;;;;;5073009;28;20067;-56
2022/06/25 05:53:25;;;;;;;3.67;1.40;;;17.90;99.90;;;;;;5073018;28;20166;-54
2022/06/25 05:55:51;;;;;;;4.47;1.60;;;17.80;99.90;;;;;;5072705;28;20041;-55
2022/06/25 05:58:18;;;;;;;5.00;1.95;;;17.60;99.90;;;;;;5071311;28;20081;-54
2022/06/25 06:00:44;;;;;;;5.03;2.20;;;17.50;99.90;;;;;;5072763;28;20027;-55
2022/06/25 06:03:10;;;;;;;6.82;2.40;;;17.60;99.90;;;;;;5072892;28;20024;-55
2022/06/25 06:05:37;;;;;;;4.10;1.80;;;17.60;99.90;;;;;;5073291;28;20507;-55
2022/06/25 06:08:02;;;;;;;5.95;2.00;;;17.50;99.90;;;;;;5072938;28;20026;-55
2022/06/25 06:10:28;;;;;;;3.80;2.10;;;17.50;99.90;;;;;;5072800;28;20111;-54
2022/06/25 06:12:54;;;;;;;7.90;2.08;;;17.50;99.90;;;;;;5072690;28;20477;-55
2022/06/25 06:15:19;;;;;;;4.35;2.28;;;17.40;99.90;;;;;;5073095;28;20107;-55
2022/06/25 06:17:45;;;;;;;6.10;2.58;;;17.50;99.90;;;;;;5072440;28;20033;-54
2022/06/25 06:20:11;;;;;;;6.30;2.17;;;17.50;99.90;;;;;;5072760;28;20024;-54
2022/06/25 06:22:37;;;;;;;8.95;2.35;;;17.50;99.90;;;;;;5072300;28;20020;-56
2022/06/25 06:25:03;;;;;;;3.78;1.73;;;17.60;99.90;;;;;;5072656;28;20473;-55
2022/06/25 06:27:29;;;;;;;7.20;2.45;;;17.70;99.90;;;;;;5072253;28;20025;-55
2022/06/25 06:29:54;;;;;;;4.95;2.30;;;17.80;99.90;;;;;;5072211;28;20429;-55
2022/06/25 06:32:20;;;;;;;5.15;2.30;;;17.80;99.90;;;;;;5071833;28;20063;-56
2022/06/25 06:34:46;;;;;;;4.97;2.25;;;17.80;99.90;;;;;;5071996;28;20017;-56
2022/06/25 06:37:12;;;;;;;5.13;2.00;;;17.90;99.90;;;;;;5072004;28;20028;-55
2022/06/25 06:39:37;;;;;;;6.82;2.28;;;17.90;99.90;;;;;;5071605;28;20031;-55
2022/06/25 06:42:03;;;;;;;7.63;2.30;;;17.90;99.90;;;;;;5071825;28;20024;-56
2022/06/25 06:44:29;;;;;;;6.20;1.73;;;17.90;99.90;;;;;;5071665;28;20021;-56
2022/06/25 06:46:55;;;;;;;5.55;2.00;;;17.90;99.90;;;;;;5071836;28;20025;-56
2022/06/25 06:49:20;;;;;;;6.82;1.92;;;18.00;99.90;;;;;;5071663;28;20031;-56
2022/06/25 06:51:46;;;;;;;4.03;1.98;;;18.00;99.90;;;;;;5071521;28;20024;-55
2022/06/25 06:54:11;;;;;;;4.03;1.88;;;18.10;99.90;;;;;;5071515;28;20048;-55
2022/06/25 06:56:37;;;;;;;8.85;2.55;;;18.10;99.90;;;;;;5071873;28;20024;-55
2022/06/25 06:59:03;;;;;;;3.28;1.73;;;18.10;99.90;;;;;;5071748;28;20067;-55
2022/06/25 07:01:30;;;;;;;8.35;2.10;;;18.00;99.90;;;;;;5071983;28;20034;-55
2022/06/25 07:03:55;;;;;;;5.38;2.15;;;18.00;99.90;;;;;;5071458;28;20025;-56
2022/06/25 07:06:21;;;;;;;4.82;2.15;;;18.00;99.90;;;;;;5072095;28;20107;-55
2022/06/25 07:08:47;;;;;;;7.43;2.40;;;18.10;99.90;;;;;;5071324;28;20039;-56
2022/06/25 07:11:28;;;;;;;4.25;1.80;;;18.10;99.90;;;;;;5071480;28;20060;-55
2022/06/25 07:13:55;;;;;;;6.90;2.10;;;18.20;99.90;;;;;;5071712;28;20075;-55
2022/06/25 07:16:21;;;;;;;5.40;1.85;;;18.20;99.90;;;;;;5071644;28;20020;-55
2022/06/25 07:18:47;;;;;;;4.32;1.88;;;18.40;99.90;;;;;;5071335;28;20172;-55
2022/06/25 07:21:13;;;;;;;5.93;1.70;;;18.50;99.90;;;;;;5071061;28;20110;-55
2022/06/25 07:23:38;;;;;;;6.32;1.75;;;18.50;99.90;;;;;;5071126;28;20021;-55
2022/06/25 07:26:04;;;;;;;4.47;1.80;;;18.60;99.90;;;;;;5071529;28;20052;-56
2022/06/25 07:28:29;;;;;;;4.18;1.67;;;18.50;99.90;;;;;;5070965;28;20115;-56
2022/06/25 07:30:55;;;;;;;5.70;2.10;;;18.40;99.90;;;;;;5070984;28;20099;-55
2022/06/25 07:33:21;;;;;;;5.95;2.50;;;17.90;99.90;;;;;;5070756;28;20036;-55
2022/06/25 07:35:46;;;;;;;3.25;1.88;;;17.50;99.90;;;;;;5071027;28;20051;-55
2022/06/25 07:38:12;;;;;;;6.57;2.30;;;17.40;99.90;;;;;;5070862;28;20040;-56
2022/06/25 07:40:37;;;;;;;5.85;2.20;;;17.40;99.90;;;;;;5070977;28;20056;-56
2022/06/25 07:43:03;;;;;;;5.70;1.85;;;17.40;99.90;;;;;;5071002;28;20108;-56
2022/06/25 07:45:29;;;;;;;3.88;1.92;;;17.40;99.90;;;;;;5070999;28;20029;-55
2022/06/25 07:47:54;;;;;;;7.82;1.70;;;17.40;99.90;;;;;;5070741;28;20411;-55
2022/06/25 07:53:05;;;;;;;4.88;1.77;;;17.30;99.90;;;;;;5071166;28;20546;-55
2022/06/25 07:55:30;;;;;;;3.55;1.60;;;17.40;99.90;;;;;;5070793;28;20052;-55
2022/06/25 07:57:56;;;;;;;3.20;1.45;;;17.70;99.90;;;;;;5070191;28;20060;-55
2022/06/25 08:00:22;;;;;;;5.90;1.75;;;17.80;99.90;;;;;;5075290;28;20020;-55
2022/06/25 08:02:48;;;;;;;3.65;2.38;;;18.00;99.90;;;;;;5074545;28;20021;-55
2022/06/25 08:05:14;;;;;;;5.63;1.90;;;18.50;99.90;;;;;;5074794;28;20035;-56
2022/06/25 08:07:40;;;;;;;3.50;1.73;;;19.10;99.90;;;;;;5074746;28;20103;-56
2022/06/25 08:10:06;;;;;;;3.72;1.60;;;20.20;99.90;;;;;;5074554;28;20025;-56
2022/06/25 08:12:32;;;;;;;4.05;1.60;;;20.70;99.90;;;;;;5074583;28;20028;-56
2022/06/25 08:14:58;;;;;;;2.58;1.55;;;20.80;99.90;;;;;;5074535;28;20388;-57
2022/06/25 08:17:24;;;;;;;2.60;1.60;;;21.20;99.90;;;;;;5074799;28;20020;-56
2022/06/25 08:19:49;;;;;;;2.65;1.38;;;21.30;99.90;;;;;;5074514;28;20032;-56
2022/06/25 08:22:15;;;;;;;3.50;1.50;;;21.80;99.90;;;;;;5074274;28;20021;-56
2022/06/25 08:24:41;;;;;;;5.15;1.40;;;22.50;99.90;;;;;;5074119;28;20405;-56
2022/06/25 08:27:06;;;;;;;2.10;1.30;;;23.10;99.90;;;;;;5073305;28;20100;-56
2022/06/25 08:29:32;;;;;;;3.35;1.13;;;23.00;99.90;;;;;;5073900;28;20528;-56
2022/06/25 08:31:57;;;;;;;4.43;1.20;;;22.70;99.90;;;;;;5074210;28;20180;-57
2022/06/25 08:34:23;;;;;;;3.10;1.20;;;22.60;99.90;;;;;;5074102;28;20020;-57
2022/06/25 08:36:48;;;;;;;4.57;1.42;;;22.60;99.90;;;;;;5074503;28;20473;-56
2022/06/25 08:39:14;;;;;;;3.35;1.30;;;22.60;99.90;;;;;;5073935;28;20055;-57
2022/06/25 08:41:41;;;;;;;2.38;1.20;;;22.60;99.90;;;;;;5073765;28;20481;-57
2022/06/25 08:44:07;;;;;;;4.72;1.20;;;22.80;99.90;;;;;;5073937;28;20107;-57
2022/06/25 08:46:33;;;;;;;1.67;1.05;;;22.90;99.90;;;;;;5074270;28;20059;-56
2022/06/25 08:49:00;;;;;;;2.78;1.02;;;22.80;99.90;;;;;;5073610;28;20028;-57
2022/06/25 08:51:28;;;;;;;1.77;0.93;;;23.20;99.90;;;;;;5074299;28;20025;-57
2022/06/25 08:53:55;;;;;;;2.22;0.77;;;23.60;99.90;;;;;;5073319;28;20112;-57
2022/06/25 08:56:22;;;;;;;2.35;0.88;;;23.20;99.90;;;;;;5073922;28;20025;-57
2022/06/25 08:58:48;;;;;;;3.50;1.10;;;22.50;99.90;;;;;;5074113;28;20401;-57
2022/06/25 09:01:14;;;;;;;2.25;0.90;;;21.90;99.90;;;;;;5073237;28;20017;-57
2022/06/25 09:03:40;;;;;;;2.05;0.90;;;21.90;99.90;;;;;;5074521;28;20031;-57
2022/06/25 09:06:13;;;;;;;4.28;1.00;;;22.50;99.90;;;;;;5074297;28;20508;-56
2022/06/25 09:08:40;;;;;;;3.20;1.02;;;22.70;99.90;;;;;;5073387;28;20110;-56
2022/06/25 09:11:06;;;;;;;1.83;0.80;;;23.00;99.90;;;;;;5072146;28;20036;-56
2022/06/25 09:13:31;;;;;;;2.22;1.02;;;24.30;99.90;;;;;;5073154;28;20908;-57
2022/06/25 09:15:57;;;;;;;2.03;0.90;;;24.60;99.90;;;;;;5073209;28;20035;-57
2022/06/25 09:18:22;;;;;;;5.57;1.00;;;24.40;99.90;;;;;;5073050;28;20024;-57
2022/06/25 09:21:03;;;;;;;4.45;1.30;;;24.10;99.90;;;;;;5073611;28;20473;-57
2022/06/25 09:23:33;;;;;;;1.20;0.75;;;23.80;99.90;;;;;;5073238;28;20557;-55
2022/06/25 09:26:10;;;;;;;3.20;1.20;;;23.60;99.90;;;;;;5073276;28;20106;-57
2022/06/25 09:28:39;;;;;;;3.08;1.13;;;22.80;99.90;;;;;;5073074;28;20443;-56
2022/06/25 09:31:05;;;;;;;1.92;0.90;;;23.00;99.90;;;;;;5073277;28;20032;-57
2022/06/25 09:33:32;;;;;;;4.75;1.30;;;23.30;99.90;;;;;;5073396;28;20028;-56
2022/06/25 09:35:58;;;;;;;4.35;1.30;;;24.00;99.90;;;;;;5073343;28;20078;-56
2022/06/25 09:38:24;;;;;;;1.25;0.80;;;24.60;99.90;;;;;;5072470;28;20031;-56
2022/06/25 09:40:56;;;;;;;2.40;0.93;;;24.50;99.90;;;;;;5072749;28;20020;-56
2022/06/25 09:43:24;;;;;;;2.20;1.00;;;24.20;99.90;;;;;;5073008;28;20393;-57
2022/06/25 09:45:52;;;;;;;2.20;1.08;;;23.90;99.90;;;;;;5073720;28;20025;-57
2022/06/25 09:48:26;;;;;;;1.77;0.90;;;23.10;99.90;;;;;;5072969;28;20028;-56
2022/06/25 09:51:15;;;;;;;3.55;1.25;;;22.70;99.90;;;;;;5073015;28;20025;-57
2022/06/25 09:53:54;;;;;;;4.00;1.30;;;23.00;99.90;;;;;;5072792;28;20476;-57
2022/06/25 09:56:23;;;;;;;2.13;0.80;;;23.10;99.90;;;;;;5073202;28;20055;-57
2022/06/25 09:58:50;;;;;;;1.65;0.90;;;24.40;99.90;;;;;;5072792;28;20037;-58
2022/06/25 10:01:17;;;;;;;2.22;1.00;;;24.10;99.90;;;;;;5073066;28;20044;-57
2022/06/25 10:03:44;;;;;;;2.95;0.90;;;24.00;99.90;;;;;;5070898;28;20016;-57
2022/06/25 10:06:12;;;;;;;3.05;1.00;;;23.60;99.90;;;;;;5072540;28;20020;-57
2022/06/25 10:08:39;;;;;;;1.88;1.00;;;22.80;99.90;;;;;;5072875;28;20024;-57
2022/06/25 10:11:06;;;;;;;3.55;0.80;;;22.70;99.90;;;;;;5071213;28;20033;-57
2022/06/25 10:13:33;;;;;;;3.10;1.05;;;22.70;99.90;;;;;;5072108;28;20016;-56
2022/06/25 10:15:58;;;;;;;2.35;1.00;;;22.90;99.90;;;;;;5072439;28;20016;-56
2022/06/25 10:18:25;;;;;;;3.47;0.90;;;23.40;99.90;;;;;;5072016;28;20534;-56
2022/06/25 10:20:51;;;;;;;1.77;0.80;;;23.30;99.90;;;;;;5071667;28;20032;-56
2022/06/25 10:23:19;;;;;;;3.38;1.17;;;22.90;99.90;;;;;;5072263;28;20020;-56
2022/06/25 10:25:46;;;;;;;2.40;0.90;;;23.30;99.90;;;;;;5072134;28;20040;-57
2022/06/25 10:28:23;;;;;;;1.73;0.90;;;23.60;99.90;;;;;;5072339;28;20040;-57
2022/06/25 10:30:50;;;;;;;2.63;0.90;;;23.60;99.90;;;;;;5071892;28;20393;-57
2022/06/25 10:33:27;;;;;;;4.45;1.13;;;23.80;99.90;;;;;;5071938;28;20024;-57
2022/06/25 10:35:57;;;;;;;1.60;0.93;;;23.80;99.90;;;;;;5071940;28;20029;-57
2022/06/25 10:38:27;;;;;;;1.90;0.98;;;23.30;99.90;;;;;;5070195;28;20526;-57
2022/06/25 10:42:58;;;;;;;3.10;1.08;;;23.20;99.90;;;;;;5072413;28;20024;-56
2022/06/25 10:43:46;;;;;;;;;;;23.30;99.90;;;;;;5071998;28;20107;-56
2022/06/25 10:46:42;;;;;;;1.80;0.90;;;23.20;99.90;;;;;;5072048;28;19904;-56
2022/06/25 10:49:18;;;;;;;6.05;1.25;;;23.00;99.90;;;;;;5071453;28;20021;-56
2022/06/25 10:51:51;;;;;;;2.97;1.00;;;22.40;99.90;;;;;;5071570;28;20051;-56
2022/06/25 10:54:22;;;;;;;2.22;1.00;;;22.40;99.90;;;;;;5071173;28;20075;-56
2022/06/25 10:56:50;;;;;;;3.45;1.20;;;22.30;99.90;;;;;;5071994;28;20435;-56
2022/06/25 10:59:46;;;;;;;4.75;1.20;;;22.00;99.90;;;;;;5070995;28;20497;-56
2022/06/25 11:02:23;;;;;;;3.92;1.13;;;21.90;99.90;;;;;;5071725;28;20065;-57
2022/06/25 11:04:54;;;;;;;2.72;1.20;;;22.20;99.90;;;;;;5071551;28;20543;-57
2022/06/25 11:07:22;;;;;;;2.47;1.20;;;22.10;99.90;;;;;;5071762;28;20033;-56
2022/06/25 11:09:54;;;;;;;3.22;1.20;;;22.00;99.90;;;;;;5071694;28;20021;-56
2022/06/25 11:12:20;;;;;;;2.40;1.20;;;22.10;99.90;;;;;;5071113;28;20043;-57
2022/06/25 11:14:50;;;;;;;1.65;0.98;;;22.30;99.90;;;;;;5071317;28;20107;-56
2022/06/25 11:17:15;;;;;;;3.40;1.23;;;22.40;99.90;;;;;;5070822;28;20473;-56
2022/06/25 11:19:42;;;;;;;3.30;1.30;;;22.30;99.90;;;;;;5071045;28;20032;-56
2022/06/25 11:22:08;;;;;;;5.65;1.58;;;21.90;99.90;;;;;;5070941;28;20100;-56
2022/06/25 11:24:34;;;;;;;5.80;1.63;;;21.60;99.90;;;;;;5070939;28;20135;-57
2022/06/25 11:29:48;;;;;;;4.22;1.60;;;21.50;99.90;;;;;;5071623;28;20067;-57
2022/06/25 11:32:20;;;;;;;5.50;1.88;;;21.20;99.90;;;;;;5070677;28;20112;-57
2022/06/25 11:34:57;;;;;;;5.25;1.88;;;21.20;99.90;;;;;;5070641;28;20035;-57
2022/06/25 11:37:24;;;;;;;5.13;2.00;;;21.20;99.90;;;;;;5071469;28;20029;-56
2022/06/25 11:39:51;;;;;;;3.90;1.60;;;20.90;99.90;;;;;;5070922;28;20029;-55
2022/06/25 11:42:17;;;;;;;5.40;1.88;;;20.90;99.90;;;;;;5071066;28;20020;-56
2022/06/25 11:44:45;;;;;;;4.30;1.88;;;20.80;99.90;;;;;;5071381;28;20029;-56
2022/06/25 11:47:32;;;;;;;4.07;2.00;;;20.90;99.90;;;;;;5071362;28;20028;-55
2022/06/25 11:49:58;;;;;;;4.40;2.03;;;20.80;99.90;;;;;;5071301;28;20021;-56
2022/06/25 11:52:25;;;;;;;5.60;1.85;;;20.80;99.90;;;;;;5070902;28;20580;-55
2022/06/25 11:54:52;;;;;;;3.17;1.83;;;21.00;99.90;;;;;;5070911;28;20060;-56
2022/06/25 11:57:27;;;;;;;2.53;1.63;;;21.50;99.90;;;;;;5070695;28;20111;-56
2022/06/25 11:59:54;;;;;;;2.53;1.30;;;22.00;99.90;;;;;;5070917;28;20035;-55
2022/06/25 12:02:21;;;;;;;3.58;1.90;;;22.30;99.90;;;;;;5070600;28;20028;-56
2022/06/25 12:04:51;;;;;;;4.18;1.98;;;22.30;99.90;;;;;;5070695;28;20031;-57
2022/06/25 12:07:23;;;;;;;3.70;1.73;;;22.30;99.90;;;;;;5070319;28;20028;-56
2022/06/25 12:09:51;;;;;;;3.80;1.88;;;22.20;99.90;;;;;;5070751;28;20028;-57
2022/06/25 12:12:17;;;;;;;3.88;1.70;;;22.10;99.90;;;;;;5071006;28;20115;-56
2022/06/25 12:14:45;;;;;;;6.60;2.00;;;22.30;99.90;;;;;;5070759;28;20032;-56
2022/06/25 12:17:11;;;;;;;3.42;1.40;;;22.40;99.90;;;;;;5070629;28;20105;-57
2022/06/25 12:19:52;;;;;;;5.38;2.28;;;22.60;99.90;;;;;;5070602;28;20083;-56
2022/06/25 12:22:25;;;;;;;3.92;1.50;;;22.40;99.90;;;;;;5070947;28;20534;-56
2022/06/25 12:24:53;;;;;;;3.35;1.80;;;22.60;99.90;;;;;;5071115;28;20036;-56
2022/06/25 12:27:19;;;;;;;5.63;2.20;;;23.00;99.90;;;;;;5069297;28;20031;-56
2022/06/25 12:29:48;;;;;;;3.05;2.00;;;23.40;99.90;;;;;;5070473;28;20024;-56
2022/06/25 12:32:14;;;;;;;4.97;2.13;;;23.70;99.90;;;;;;5070396;28;20036;-56
2022/06/25 12:34:50;;;;;;;3.80;2.00;;;23.70;99.90;;;;;;5070926;28;20113;-58
2022/06/25 12:37:33;;;;;;;4.10;2.40;;;23.50;99.90;;;;;;5070779;28;20108;-57
2022/06/25 12:39:59;;;;;;;4.35;2.22;;;23.00;99.90;;;;;;5070309;28;20028;-57
2022/06/25 12:42:28;;;;;;;5.40;2.17;;;22.40;99.90;;;;;;5070743;28;20043;-57
2022/06/25 12:44:54;;;;;;;6.70;2.45;;;22.30;99.90;;;;;;5072120;28;20059;-55
2022/06/25 12:47:20;;;;;;;3.50;1.88;;;22.20;99.90;;;;;;5074054;28;20021;-55
2022/06/25 12:49:56;;;;;;;4.30;1.80;;;22.20;99.90;;;;;;5074114;28;20037;-55
2022/06/25 12:52:26;;;;;;;4.80;2.17;;;22.40;99.90;;;;;;5074315;28;20389;-56
2022/06/25 12:54:55;;;;;;;4.78;2.20;;;22.50;99.90;;;;;;5074008;28;20400;-56
2022/06/25 12:57:33;;;;;;;3.47;1.95;;;22.40;99.90;;;;;;5073796;28;20484;-57
2022/06/25 13:00:02;;;;;;;5.90;2.33;;;22.10;99.90;;;;;;5073652;28;20500;-57